createdAt,value
2022-09-25T00:02:43.535Z,1.75
2022-09-25T00:07:45.049Z,1.90
2022-09-25T00:12:46.595Z,1.88
2022-09-25T00:17:48.518Z,1.60
2022-09-25T00:22:50.926Z,1.70
2022-09-25T00:27:53.403Z,1.98
2022-09-25T00:32:54.846Z,1.90
2022-09-25T00:37:56.331Z,1.58
2022-09-25T00:42:57.770Z,2.10
2022-09-25T00:48:00.834Z,2.22
2022-09-25T00:53:13.183Z,2.10
2022-09-25T00:58:19.652Z,1.75
2022-09-25T01:03:22.741Z,2.17
2022-09-25T01:08:27.761Z,1.08
2022-09-25T01:13:30.066Z,0.88
2022-09-25T01:19:12.096Z,1.35
2022-09-25T01:24:30.462Z,0.93
2022-09-25T01:29:53.765Z,0.98
2022-09-25T01:35:39.815Z,0.70
2022-09-25T01:41:11.260Z,1.40
2022-09-25T01:46:19.501Z,1.23
2022-09-25T01:51:26.879Z,1.35
2022-09-25T01:56:33.871Z,1.10
2022-09-25T02:01:42.455Z,1.10
2022-09-25T02:06:48.020Z,0.90
2022-09-25T02:11:53.711Z,1.42
2022-09-25T02:16:58.362Z,1.58
2022-09-25T02:22:17.318Z,1.25
2022-09-25T02:27:20.392Z,1.50
2022-09-25T02:32:28.091Z,1.08
2022-09-25T02:42:59.947Z,1.27
2022-09-25T02:48:19.116Z,1.13
2022-09-25T02:53:37.086Z,1.00
2022-09-25T03:03:50.624Z,0.82
2022-09-25T03:14:00.723Z,1.60
2022-09-25T03:19:03.417Z,1.15
2022-09-25T03:24:05.002Z,1.58
2022-09-25T03:29:06.490Z,1.35
2022-09-25T03:34:08.487Z,1.92
2022-09-25T03:39:10.855Z,1.30
2022-09-25T03:44:12.704Z,1.50
2022-09-25T03:49:14.271Z,0.93
2022-09-25T03:54:15.739Z,1.40
2022-09-25T03:59:17.189Z,1.50
2022-09-25T04:04:18.639Z,1.30
2022-09-25T04:09:20.096Z,1.27
2022-09-25T04:14:21.954Z,1.38
2022-09-25T04:19:23.439Z,1.35
2022-09-25T04:24:43.479Z,1.55
2022-09-25T04:29:45.527Z,1.00
2022-09-25T04:34:47.052Z,1.40
2022-09-25T04:39:48.889Z,1.50
2022-09-25T04:44:52.445Z,1.48
2022-09-25T04:49:54.012Z,1.55
2022-09-25T04:54:56.234Z,1.50
2022-09-25T04:59:57.877Z,1.30
2022-09-25T05:04:59.411Z,1.30
2022-09-25T05:10:00.886Z,1.88
2022-09-25T05:15:02.411Z,1.73
2022-09-25T05:20:04.110Z,1.98
2022-09-25T05:25:06.096Z,1.30
2022-09-25T05:30:11.145Z,1.40
2022-09-25T05:35:13.621Z,1.50
2022-09-25T05:40:17.735Z,1.63
2022-09-25T05:45:21.612Z,1.50
2022-09-25T05:50:23.091Z,1.50
2022-09-25T05:55:25.389Z,2.30
2022-09-25T06:00:28.098Z,2.67
2022-09-25T06:05:30.303Z,2.22
2022-09-25T06:10:32.034Z,2.10
2022-09-25T06:15:37.405Z,2.55
2022-09-25T06:20:39.053Z,3.40
2022-09-25T06:25:41.106Z,2.88
2022-09-25T06:30:42.674Z,2.97
2022-09-25T06:35:46.422Z,2.40
2022-09-25T06:40:47.979Z,2.30
2022-09-25T06:45:50.097Z,2.03
2022-09-25T06:50:55.049Z,1.90
2022-09-25T06:55:58.159Z,2.20
2022-09-25T07:00:59.720Z,1.92
2022-09-25T07:06:02.295Z,2.30
2022-09-25T07:11:04.382Z,2.05
2022-09-25T07:16:08.085Z,1.90
2022-09-25T07:21:18.324Z,1.70
2022-09-25T07:26:24.827Z,1.85
2022-09-25T07:31:28.846Z,1.60
2022-09-25T07:36:30.335Z,1.42
2022-09-25T07:41:32.090Z,1.10
2022-09-25T07:46:33.607Z,1.50
2022-09-25T07:51:36.314Z,1.40
2022-09-25T07:56:38.326Z,1.38
2022-09-25T08:01:44.148Z,1.13
2022-09-25T08:06:47.858Z,1.20
2022-09-25T08:11:49.400Z,1.45
2022-09-25T08:16:55.743Z,0.90
2022-09-25T08:21:57.232Z,0.90
2022-09-25T08:26:58.700Z,1.42
2022-09-25T08:32:00.410Z,0.93
2022-09-25T08:37:02.041Z,1.05
2022-09-25T08:42:05.652Z,1.10
2022-09-25T08:47:33.523Z,1.20
2022-09-25T08:52:35.611Z,1.08
2022-09-25T08:57:44.011Z,0.93
2022-09-25T09:02:50.440Z,1.15
2022-09-25T09:08:04.241Z,0.73
2022-09-25T09:13:18.363Z,0.80
2022-09-25T09:18:29.340Z,1.33
2022-09-25T09:23:36.323Z,1.05
2022-09-25T09:28:54.849Z,0.98
2022-09-25T09:34:18.079Z,0.95
2022-09-25T09:39:32.356Z,0.90
2022-09-25T09:44:57.669Z,0.82
2022-09-25T09:50:14.200Z,0.70
2022-09-25T09:55:31.662Z,0.95
2022-09-25T10:00:34.726Z,0.68
2022-09-25T10:05:48.860Z,0.82
2022-09-25T10:10:58.473Z,0.70
2022-09-25T10:16:11.658Z,0.63
2022-09-25T10:21:22.555Z,1.08
2022-09-25T10:26:36.928Z,0.93
2022-09-25T10:31:40.650Z,0.90
2022-09-25T10:36:47.512Z,0.98
2022-09-25T10:41:49.230Z,1.15
2022-09-25T10:47:10.101Z,1.02
2022-09-25T10:52:21.211Z,0.93
2022-09-25T10:57:38.049Z,0.90
2022-09-25T11:02:43.427Z,1.20
2022-09-25T11:07:52.361Z,1.17
2022-09-25T11:12:54.414Z,1.02
2022-09-25T11:17:57.142Z,1.05
2022-09-25T11:23:08.372Z,0.90
2022-09-25T11:28:20.157Z,0.90
2022-09-25T11:33:36.503Z,1.42
2022-09-25T11:39:10.335Z,0.90
2022-09-25T11:44:39.782Z,0.98
2022-09-25T11:49:42.339Z,0.85
2022-09-25T11:55:21.202Z,0.90
2022-09-25T12:01:01.239Z,1.10
2022-09-25T12:06:27.359Z,0.98
2022-09-25T12:11:45.849Z,0.88
2022-09-25T12:16:47.965Z,0.70
2022-09-25T12:21:52.905Z,0.60
2022-09-25T12:27:14.730Z,0.75
2022-09-25T12:32:32.189Z,1.13
2022-09-25T12:37:43.409Z,0.50
2022-09-25T12:43:07.910Z,0.55
2022-09-25T12:48:14.256Z,0.80
2022-09-25T12:54:05.318Z,0.50
2022-09-25T12:59:13.698Z,0.70
2022-09-25T13:04:23.866Z,0.68
2022-09-25T13:09:34.726Z,0.60
2022-09-25T13:14:42.749Z,0.40
2022-09-25T13:19:44.273Z,0.60
2022-09-25T13:25:13.349Z,0.60
2022-09-25T13:30:26.046Z,0.77
2022-09-25T13:35:27.871Z,0.43
2022-09-25T13:40:46.003Z,0.65
2022-09-25T13:45:50.205Z,5.40
2022-09-25T13:51:18.047Z,1.42
2022-09-25T13:56:24.397Z,1.35
2022-09-25T14:01:39.527Z,0.45
2022-09-25T14:06:47.709Z,0.63
2022-09-25T14:12:11.998Z,0.50
2022-09-25T14:17:16.518Z,1.10
2022-09-25T14:22:46.398Z,0.60
2022-09-25T14:27:52.846Z,0.60
2022-09-25T14:33:13.090Z,0.50
2022-09-25T14:38:20.298Z,0.40
2022-09-25T14:48:51.508Z,0.50
2022-09-25T14:54:02.197Z,0.35
2022-09-25T14:59:15.988Z,0.43
2022-09-25T15:04:34.363Z,0.38
2022-09-25T15:09:38.610Z,0.40
2022-09-25T15:14:40.046Z,0.52
2022-09-25T15:19:45.548Z,0.95
2022-09-25T15:25:07.960Z,0.70
2022-09-25T15:30:17.094Z,0.60
2022-09-25T15:35:23.599Z,0.85
2022-09-25T15:40:30.352Z,0.90
2022-09-25T15:45:38.003Z,0.60
2022-09-25T15:50:43.658Z,0.70
2022-09-25T15:55:46.382Z,1.58
2022-09-25T16:01:16.373Z,0.77
2022-09-25T16:06:18.295Z,0.85
2022-09-25T16:11:24.844Z,0.63
2022-09-25T16:16:31.445Z,0.70
2022-09-25T16:21:39.160Z,0.50
2022-09-25T16:26:42.920Z,0.90
2022-09-25T16:31:45.401Z,0.63
2022-09-25T16:36:48.521Z,1.00
2022-09-25T16:41:50.334Z,1.10
2022-09-25T16:46:52.218Z,0.80
2022-09-25T16:51:55.405Z,1.33
2022-09-25T16:56:58.954Z,2.15
2022-09-25T17:02:04.871Z,2.03
2022-09-25T17:07:08.538Z,2.13
2022-09-25T17:12:19.982Z,1.83
2022-09-25T17:17:22.061Z,1.80
2022-09-25T17:22:29.402Z,1.10
2022-09-25T17:27:30.873Z,1.15
2022-09-25T17:32:33.008Z,1.30
2022-09-25T17:37:34.472Z,0.90
2022-09-25T17:42:36.002Z,0.90
2022-09-25T17:47:37.482Z,1.35
2022-09-25T17:52:38.934Z,1.05
2022-09-25T17:57:40.507Z,2.88
2022-09-25T18:02:42.235Z,1.42
2022-09-25T18:07:43.920Z,1.38
2022-09-25T18:12:45.394Z,3.10
2022-09-25T18:17:46.846Z,1.60
2022-09-25T18:22:48.828Z,2.88
2022-09-25T18:27:50.554Z,7.55
2022-09-25T18:32:52.268Z,6.38
2022-09-25T18:37:53.801Z,5.13
2022-09-25T18:42:55.268Z,5.90
2022-09-25T18:47:57.391Z,4.93
2022-09-25T18:52:59.192Z,2.70
2022-09-25T18:58:01.202Z,2.40
2022-09-25T19:03:03.146Z,2.13
2022-09-25T19:08:04.980Z,2.60
2022-09-25T19:13:06.915Z,1.50
2022-09-25T19:18:08.413Z,1.13
2022-09-25T19:23:09.881Z,1.92
2022-09-25T19:28:11.350Z,3.17
2022-09-25T19:33:12.876Z,1.40
2022-09-25T19:38:14.351Z,1.27
2022-09-25T19:43:15.813Z,0.95
2022-09-25T19:48:17.470Z,1.38
2022-09-25T19:53:19.018Z,1.80
2022-09-25T19:58:23.665Z,2.55
2022-09-25T20:03:25.333Z,2.70
2022-09-25T20:08:26.884Z,1.55
2022-09-25T20:13:28.377Z,1.40
2022-09-25T20:18:29.824Z,1.10
2022-09-25T20:23:31.393Z,1.15
2022-09-25T20:28:32.872Z,1.98
2022-09-25T20:33:35.717Z,1.33
2022-09-25T20:38:37.344Z,1.25
2022-09-25T20:43:39.671Z,2.45
2022-09-25T20:48:45.512Z,1.30
2022-09-25T20:53:55.272Z,1.60
2022-09-25T20:58:57.783Z,1.75
2022-09-25T21:04:01.589Z,1.60
2022-09-25T21:09:07.108Z,1.55
2022-09-25T21:14:15.307Z,1.60
2022-09-25T21:19:18.606Z,1.75
2022-09-25T21:24:21.616Z,1.50
2022-09-25T21:29:23.074Z,1.70
2022-09-25T21:34:24.523Z,1.70
2022-09-25T21:39:26.000Z,1.95
2022-09-25T21:44:27.533Z,1.55
2022-09-25T21:49:29.461Z,1.60
2022-09-25T21:54:31.572Z,1.73
2022-09-25T21:59:33.016Z,1.52
2022-09-25T22:04:34.479Z,1.45
2022-09-25T22:09:35.967Z,1.73
2022-09-25T22:14:37.468Z,1.50
2022-09-25T22:19:39.055Z,1.90
2022-09-25T22:24:40.511Z,1.48
2022-09-25T22:29:41.979Z,1.42
2022-09-25T22:34:43.449Z,1.40
2022-09-25T22:39:44.906Z,1.90
2022-09-25T22:44:46.362Z,1.15
2022-09-25T22:49:47.830Z,1.05
2022-09-25T22:54:49.297Z,1.45
2022-09-25T22:59:50.842Z,1.33
2022-09-25T23:04:53.908Z,1.30
2022-09-25T23:09:55.487Z,1.20
2022-09-25T23:14:56.951Z,1.23
2022-09-25T23:19:58.423Z,1.38
2022-09-25T23:24:59.894Z,1.10
2022-09-25T23:30:01.394Z,1.15
2022-09-25T23:35:03.030Z,1.35
2022-09-25T23:40:04.784Z,1.30
2022-09-25T23:45:07.133Z,1.23
2022-09-25T23:50:08.967Z,1.70
2022-09-25T23:55:11.232Z,1.40
